Карточка аэропорта UIUU

Внимание!
Информация на этой странице в стадии наполнения.
Если вы не увидели какой-то информации, или заметили неточность - пожалуйста сообщите нам!
Спасибо!
Команда RU-STAFF
Название аэропортаМухино
Название аэропорта (англ.)Mukhino
Превышение1690 ft. (515.1 m.)
Координаты51°48.45', 107°26.4'
Высота перехода1800 м
Эшелон переходаFL090
Коды ответчика
Зона ОрВДИркутск РПИ (UIII)
Данные METARUIUU 012000Z 31004MPS 9999 BKN043CB M00/M07 Q1027 R26/CLRD60 NOSIG RMK QFE726/0968
Проноз погоды (TAF)UIUU 011700Z 0118/0218 30006G12MPS 9999 BKN030CB TEMPO 0118/0218 36003G08MPS OVC011CB
NOTAMshow/hide NOTAM
AWOS   TABLE

Информация о ВПП

ВПП Длина ВПП (м.) Покрытие Курс ВПП Частота ILS
083400Цементобетон83111.3
263400Цементобетон263110.3

Диспетчерские позиции

Позывной Наименование органа УВД Частота
UIUU_APPУлан-Удэ-Подход129.300
UIUU_TWRУлан-Удэ-Вышка118.100



Спутниковое изображение